Time;durP1;ratioP1;P1;durP2;ratioP2;P2;SDS_P1;SDS_P2;PMS_P1;PMS_P2;Temp;Humidity;BMP_temperature;BMP_pressure;BME280_temperature;BME280_humidity;BME280_pressure;Samples;Min_cycle;Max_cycle;Signal;HPM_P1;HPM_P2
2024/01/13 00:00:16;;;;;;;762.67;703.95;;;3.10;99.90;;;;;;5005041;28;20148;-77
2024/01/13 00:02:42;;;;;;;723.80;669.88;;;2.70;99.90;;;;;;5005057;28;20042;-78
2024/01/13 00:05:08;;;;;;;727.63;672.90;;;2.80;99.90;;;;;;4997357;28;20042;-78
2024/01/13 00:07:33;;;;;;;775.35;716.03;;;2.60;99.90;;;;;;4972957;28;20061;-77
2024/01/13 00:09:59;;;;;;;725.22;670.33;;;3.30;99.90;;;;;;4998624;28;20122;-77
2024/01/13 00:12:25;;;;;;;754.83;698.38;;;2.70;99.90;;;;;;4974052;28;20042;-77
2024/01/13 00:14:51;;;;;;;763.90;704.97;;;2.80;99.90;;;;;;4999543;28;20050;-78
2024/01/13 00:17:17;;;;;;;792.20;730.92;;;3.20;99.90;;;;;;4985379;28;20050;-78
2024/01/13 00:19:43;;;;;;;792.90;731.47;;;2.70;99.90;;;;;;4990939;28;20481;-78
2024/01/13 00:22:08;;;;;;;774.90;715.80;;;2.70;99.90;;;;;;4993160;28;20046;-78
2024/01/13 00:24:34;;;;;;;746.88;689.88;;;2.70;99.90;;;;;;4986936;28;20104;-77
2024/01/13 00:27:00;;;;;;;763.13;704.40;;;2.70;99.90;;;;;;5001422;28;20509;-78
2024/01/13 00:29:26;;;;;;;741.70;685.35;;;2.90;99.90;;;;;;4995697;28;20061;-78
2024/01/13 00:31:51;;;;;;;754.53;696.78;;;2.70;99.90;;;;;;4987525;28;20091;-78
2024/01/13 00:34:17;;;;;;;767.30;708.70;;;2.70;99.90;;;;;;4984793;28;20076;-77
2024/01/13 00:36:43;;;;;;;779.35;720.75;;;2.70;99.90;;;;;;4986259;28;20126;-78
2024/01/13 00:39:08;;;;;;;799.13;737.92;;;2.70;99.90;;;;;;4986877;28;20050;-78
2024/01/13 00:41:34;;;;;;;786.50;725.78;;;2.70;99.90;;;;;;4987004;28;20064;-78
2024/01/13 00:44:00;;;;;;;744.72;688.72;;;3.40;99.90;;;;;;5006272;28;20149;-77
2024/01/13 00:46:26;;;;;;;804.78;743.08;;;2.70;99.90;;;;;;4985813;28;20038;-77
2024/01/13 00:48:52;;;;;;;782.85;723.10;;;2.80;99.90;;;;;;4986086;28;20435;-78
2024/01/13 00:51:18;;;;;;;779.15;719.03;;;2.80;99.90;;;;;;4985585;28;20047;-78
2024/01/13 00:53:44;;;;;;;772.95;714.00;;;2.80;99.90;;;;;;4983959;28;20099;-78
2024/01/13 00:56:10;;;;;;;799.03;737.65;;;2.70;99.90;;;;;;4986523;28;20066;-77
2024/01/13 00:58:36;;;;;;;786.03;725.10;;;2.80;99.90;;;;;;4985763;28;20137;-78
2024/01/13 01:01:03;;;;;;;781.67;722.35;;;2.70;99.90;;;;;;4985597;28;20045;-77
2024/01/13 01:03:29;;;;;;;787.45;727.35;;;2.80;99.90;;;;;;4998133;28;20564;-78
2024/01/13 01:05:55;;;;;;;774.08;714.65;;;2.80;99.90;;;;;;4985150;28;20047;-78
2024/01/13 01:08:20;;;;;;;804.22;741.75;;;3.50;99.90;;;;;;4997584;28;20042;-78
2024/01/13 01:10:46;;;;;;;794.03;732.65;;;3.20;99.90;;;;;;4984571;28;20096;-77
2024/01/13 01:13:12;;;;;;;753.20;697.50;;;2.90;99.90;;;;;;4998962;28;20042;-77
2024/01/13 01:15:38;;;;;;;768.95;710.90;;;2.90;99.90;;;;;;5002199;28;20064;-78
2024/01/13 01:18:04;;;;;;;733.47;677.85;;;3.00;99.90;;;;;;5036331;28;20046;-78
2024/01/13 01:20:30;;;;;;;775.05;717.03;;;3.00;99.90;;;;;;5003732;28;20049;-77
2024/01/13 01:22:56;;;;;;;773.33;715.10;;;2.80;99.90;;;;;;5002237;28;20134;-78
2024/01/13 01:25:22;;;;;;;746.25;690.47;;;3.00;99.90;;;;;;5003876;28;20404;-77
2024/01/13 01:27:47;;;;;;;758.72;700.35;;;3.30;99.90;;;;;;5003711;28;20504;-78
2024/01/13 01:30:13;;;;;;;740.55;684.65;;;2.90;99.90;;;;;;5003285;28;20102;-77
2024/01/13 01:32:39;;;;;;;761.45;703.88;;;2.90;99.90;;;;;;5004408;28;20618;-78
2024/01/13 01:35:08;;;;;;;765.17;707.17;;;3.60;99.90;;;;;;4995146;28;20128;-77
2024/01/13 01:37:35;;;;;;;723.15;669.35;;;2.90;99.90;;;;;;4997534;28;20038;-77
2024/01/13 01:40:01;;;;;;;762.15;704.28;;;2.80;99.90;;;;;;5003210;28;20520;-78
2024/01/13 01:42:27;;;;;;;715.75;662.08;;;2.80;99.90;;;;;;5002576;28;20057;-78
2024/01/13 01:44:52;;;;;;;746.15;690.15;;;3.00;99.90;;;;;;4999074;28;20469;-77
2024/01/13 01:47:21;;;;;;;799.40;736.95;;;2.80;99.90;;;;;;5020638;28;20119;-77
2024/01/13 01:49:48;;;;;;;730.55;676.30;;;2.80;99.90;;;;;;4987288;28;20053;-78
2024/01/13 01:52:14;;;;;;;734.33;679.00;;;2.90;99.90;;;;;;5001324;28;20124;-78
2024/01/13 01:54:41;;;;;;;723.72;669.88;;;3.20;99.90;;;;;;5003517;28;20061;-78
2024/01/13 01:57:10;;;;;;;768.40;710.35;;;3.20;99.90;;;;;;5003807;28;20046;-78
2024/01/13 01:59:36;;;;;;;735.78;680.00;;;3.10;99.90;;;;;;5002520;28;20046;-77
2024/01/13 02:02:03;;;;;;;735.55;680.00;;;2.80;99.90;;;;;;5004715;28;20163;-78
2024/01/13 02:04:29;;;;;;;745.85;690.17;;;2.80;99.90;;;;;;4990438;28;20505;-78
2024/01/13 02:06:54;;;;;;;711.60;658.67;;;2.90;99.90;;;;;;4996076;28;20052;-78
2024/01/13 02:09:20;;;;;;;718.55;664.85;;;2.90;99.90;;;;;;5002247;28;20041;-78
2024/01/13 02:11:46;;;;;;;728.88;674.88;;;3.10;99.90;;;;;;5002387;28;20143;-78
2024/01/13 02:14:12;;;;;;;717.15;664.40;;;2.70;99.90;;;;;;5002918;28;20132;-77
2024/01/13 02:16:37;;;;;;;773.22;715.00;;;2.70;99.90;;;;;;5002581;28;20131;-78
2024/01/13 02:19:03;;;;;;;759.58;702.63;;;2.80;99.90;;;;;;5003096;28;20121;-77
2024/01/13 02:21:29;;;;;;;795.60;734.67;;;3.30;99.90;;;;;;4990939;28;20529;-78
2024/01/13 02:23:54;;;;;;;758.55;701.33;;;2.70;99.90;;;;;;5004111;28;20066;-78
2024/01/13 02:26:20;;;;;;;799.70;737.75;;;3.00;99.90;;;;;;4985564;28;20379;-77
2024/01/13 02:28:46;;;;;;;732.70;678.20;;;3.00;99.90;;;;;;4984044;28;20049;-77
2024/01/13 02:31:14;;;;;;;732.25;677.40;;;2.70;99.90;;;;;;4989956;28;20046;-77
2024/01/13 02:33:39;;;;;;;745.25;689.78;;;2.70;99.90;;;;;;5001453;28;20046;-78
2024/01/13 02:36:05;;;;;;;773.78;714.53;;;3.20;99.90;;;;;;5003404;28;20049;-77
2024/01/13 02:38:31;;;;;;;732.63;677.90;;;2.70;99.90;;;;;;4995161;28;20085;-78
2024/01/13 02:40:56;;;;;;;722.20;668.85;;;2.50;99.90;;;;;;4983466;28;20720;-77
2024/01/13 02:43:22;;;;;;;787.00;727.63;;;2.70;99.90;;;;;;4983404;28;20046;-77
2024/01/13 02:45:48;;;;;;;744.15;688.45;;;2.60;99.90;;;;;;4984675;28;20031;-78
2024/01/13 02:48:17;;;;;;;742.22;685.85;;;2.90;99.90;;;;;;4990163;28;20513;-78
2024/01/13 02:50:50;;;;;;;769.10;711.47;;;2.90;99.90;;;;;;5001556;28;20134;-77
2024/01/13 02:53:16;;;;;;;772.42;713.75;;;2.80;99.90;;;;;;5001532;28;20103;-77
2024/01/13 02:55:42;;;;;;;775.25;715.47;;;2.70;99.90;;;;;;5021675;28;20053;-78
2024/01/13 02:58:07;;;;;;;785.70;725.78;;;2.80;99.90;;;;;;5002745;28;20114;-78
2024/01/13 03:00:33;;;;;;;750.05;692.53;;;3.20;99.90;;;;;;5003709;28;20573;-77
2024/01/13 03:02:59;;;;;;;803.35;742.33;;;2.90;99.90;;;;;;4994251;28;20085;-78
2024/01/13 03:05:24;;;;;;;803.83;742.13;;;2.80;99.90;;;;;;4970610;28;20084;-77
2024/01/13 03:07:50;;;;;;;782.70;723.40;;;2.70;99.90;;;;;;5002181;28;20054;-78
2024/01/13 03:10:16;;;;;;;774.42;715.17;;;2.80;99.90;;;;;;5001984;28;20490;-77
2024/01/13 03:12:41;;;;;;;799.42;738.35;;;2.70;99.90;;;;;;4985642;28;20069;-77
2024/01/13 03:15:07;;;;;;;751.67;695.22;;;2.80;99.90;;;;;;5001099;28;20146;-77
2024/01/13 03:17:33;;;;;;;828.38;762.85;;;2.80;99.90;;;;;;5001888;28;20425;-78
2024/01/13 03:19:59;;;;;;;783.25;724.30;;;2.90;99.90;;;;;;5001446;28;20069;-77
2024/01/13 03:22:24;;;;;;;790.53;730.35;;;3.40;99.90;;;;;;5000639;28;20046;-78
2024/01/13 03:24:50;;;;;;;753.47;696.72;;;2.80;99.90;;;;;;5002315;28;20099;-77
2024/01/13 03:27:16;;;;;;;786.00;725.85;;;2.90;99.90;;;;;;4993180;28;20508;-77
2024/01/13 03:29:41;;;;;;;736.75;682.65;;;3.00;99.90;;;;;;4983767;28;20042;-78
2024/01/13 03:32:07;;;;;;;759.55;702.30;;;3.40;99.90;;;;;;5002264;28;20140;-77
2024/01/13 03:34:33;;;;;;;707.53;654.72;;;2.80;99.90;;;;;;5003119;28;20053;-77
2024/01/13 03:36:59;;;;;;;724.00;670.10;;;3.40;99.90;;;;;;5001253;28;20444;-77
2024/01/13 03:39:24;;;;;;;741.67;685.92;;;3.20;99.90;;;;;;5003230;28;20049;-77
2024/01/13 03:41:50;;;;;;;744.80;689.05;;;3.40;99.90;;;;;;5006882;28;20049;-77
2024/01/13 03:44:16;;;;;;;732.60;677.25;;;2.90;99.90;;;;;;4989459;28;20054;-78
2024/01/13 03:46:41;;;;;;;732.28;677.42;;;3.70;99.90;;;;;;4986108;28;20065;-77
2024/01/13 03:49:07;;;;;;;770.78;712.60;;;2.80;99.90;;;;;;4993749;28;20057;-78
2024/01/13 03:51:33;;;;;;;740.28;684.63;;;2.40;99.90;;;;;;5004538;28;20050;-78
2024/01/13 03:53:58;;;;;;;737.78;682.72;;;3.30;99.90;;;;;;5005725;28;20148;-78
2024/01/13 03:56:24;;;;;;;723.08;669.83;;;2.80;99.90;;;;;;5006506;28;20042;-78
2024/01/13 03:58:50;;;;;;;760.22;703.80;;;3.00;99.90;;;;;;5020190;28;20369;-78
2024/01/13 04:01:15;;;;;;;724.65;671.13;;;2.90;99.90;;;;;;5004495;28;20054;-78
2024/01/13 04:03:41;;;;;;;743.70;687.42;;;2.80;99.90;;;;;;4993140;28;20038;-78
2024/01/13 04:06:07;;;;;;;702.35;650.25;;;2.80;99.90;;;;;;5014814;28;20058;-77
2024/01/13 04:08:34;;;;;;;752.00;694.75;;;3.00;99.90;;;;;;5003356;28;20150;-77
2024/01/13 04:11:00;;;;;;;688.97;638.58;;;2.80;99.90;;;;;;5003765;28;20054;-77
2024/01/13 04:13:25;;;;;;;687.03;636.40;;;2.80;99.90;;;;;;5004486;28;20092;-77
2024/01/13 04:15:51;;;;;;;689.55;638.88;;;3.30;99.90;;;;;;5006749;28;20081;-77
2024/01/13 04:18:17;;;;;;;741.38;685.35;;;2.90;99.90;;;;;;5003727;28;20113;-77
2024/01/13 04:20:42;;;;;;;728.92;674.17;;;2.80;99.90;;;;;;5006294;28;20046;-78
2024/01/13 04:23:08;;;;;;;707.45;655.15;;;2.70;99.90;;;;;;5005329;28;20216;-77
2024/01/13 04:25:34;;;;;;;743.15;687.35;;;2.70;99.90;;;;;;5005590;28;20525;-78
2024/01/13 04:28:01;;;;;;;756.47;698.45;;;3.20;99.90;;;;;;5005050;28;20057;-77
2024/01/13 04:30:28;;;;;;;743.28;687.72;;;2.80;99.90;;;;;;5004446;28;20046;-77
2024/01/13 04:32:53;;;;;;;764.20;706.53;;;3.30;99.90;;;;;;5002796;28;20046;-77
2024/01/13 04:35:19;;;;;;;723.33;669.15;;;3.00;99.90;;;;;;5006419;28;20041;-78
2024/01/13 04:37:45;;;;;;;707.65;654.83;;;3.10;99.90;;;;;;5037146;28;20391;-78
2024/01/13 04:40:11;;;;;;;721.80;668.65;;;3.10;99.90;;;;;;4996360;28;20062;-77
2024/01/13 04:42:36;;;;;;;754.95;698.35;;;2.70;99.90;;;;;;5000801;28;20046;-78
2024/01/13 04:45:02;;;;;;;774.72;714.15;;;3.20;99.90;;;;;;5004688;28;20098;-78
2024/01/13 04:47:28;;;;;;;746.55;689.70;;;2.80;99.90;;;;;;4997659;28;20108;-78
2024/01/13 04:49:54;;;;;;;711.60;659.08;;;2.70;99.90;;;;;;4997495;28;20115;-78
2024/01/13 04:52:19;;;;;;;766.95;709.15;;;2.80;99.90;;;;;;4984946;28;20093;-78
2024/01/13 04:54:45;;;;;;;741.05;685.13;;;3.00;99.90;;;;;;4985178;28;20439;-78
2024/01/13 04:57:11;;;;;;;775.63;715.40;;;3.10;99.90;;;;;;4998201;28;20375;-78
2024/01/13 04:59:36;;;;;;;732.75;677.92;;;2.90;99.90;;;;;;5005884;28;20054;-78
2024/01/13 05:02:03;;;;;;;781.47;722.28;;;2.80;99.90;;;;;;4997026;28;20038;-78
2024/01/13 05:04:28;;;;;;;738.67;683.28;;;2.80;99.90;;;;;;4986012;28;20132;-78
2024/01/13 05:06:54;;;;;;;766.20;708.33;;;3.30;99.90;;;;;;4975744;28;20042;-78
2024/01/13 05:09:20;;;;;;;775.13;717.05;;;2.80;99.90;;;;;;4983847;28;20464;-77
2024/01/13 05:11:46;;;;;;;743.10;687.85;;;2.90;99.90;;;;;;5003127;28;20054;-77
2024/01/13 05:14:11;;;;;;;760.40;702.85;;;3.70;99.90;;;;;;4989659;28;20046;-78
2024/01/13 05:16:37;;;;;;;740.03;683.53;;;2.90;99.90;;;;;;4984228;28;20541;-77
2024/01/13 05:19:03;;;;;;;741.67;685.88;;;3.50;99.90;;;;;;4985566;28;20042;-77
2024/01/13 05:21:28;;;;;;;752.97;696.33;;;2.80;99.90;;;;;;4983798;28;20138;-77
2024/01/13 05:23:54;;;;;;;746.88;689.83;;;2.80;99.90;;;;;;5001058;28;20045;-77
2024/01/13 05:26:20;;;;;;;756.50;699.70;;;3.20;99.90;;;;;;4996112;28;20444;-78
2024/01/13 05:28:45;;;;;;;766.55;708.22;;;2.80;99.90;;;;;;4984817;28;20065;-77
2024/01/13 05:31:11;;;;;;;759.17;701.55;;;2.80;99.90;;;;;;4986371;28;20072;-78
2024/01/13 05:33:37;;;;;;;762.75;706.15;;;2.80;99.90;;;;;;4994869;28;20077;-77
2024/01/13 05:36:03;;;;;;;734.53;679.33;;;2.80;99.90;;;;;;5003139;28;20042;-78
2024/01/13 05:38:28;;;;;;;733.40;678.83;;;2.80;99.90;;;;;;4996846;28;20142;-78
2024/01/13 05:40:54;;;;;;;795.85;734.53;;;3.40;99.90;;;;;;4986217;28;20053;-77
2024/01/13 05:43:20;;;;;;;726.15;672.28;;;3.20;99.90;;;;;;4984544;28;20052;-78
2024/01/13 05:45:46;;;;;;;719.13;665.92;;;2.80;99.90;;;;;;4984934;28;20081;-78
2024/01/13 05:48:12;;;;;;;736.85;682.25;;;2.70;99.90;;;;;;4984602;28;20108;-77
2024/01/13 05:50:37;;;;;;;747.92;692.10;;;3.10;99.90;;;;;;4990181;28;20068;-77
2024/01/13 05:53:03;;;;;;;729.63;674.80;;;2.70;99.90;;;;;;5002945;28;20049;-77
2024/01/13 05:55:29;;;;;;;741.13;685.55;;;3.10;99.90;;;;;;5003176;28;20046;-77
2024/01/13 05:57:55;;;;;;;761.03;703.50;;;2.80;99.90;;;;;;4992092;28;20042;-78
2024/01/13 06:00:21;;;;;;;770.50;713.10;;;2.80;99.90;;;;;;4996190;28;20054;-77
2024/01/13 06:02:46;;;;;;;798.85;738.38;;;2.80;99.90;;;;;;4996834;28;20042;-77
2024/01/13 06:05:12;;;;;;;801.60;740.28;;;2.80;99.90;;;;;;4989645;28;20079;-78
2024/01/13 06:07:38;;;;;;;749.67;694.17;;;2.80;99.90;;;;;;5002411;28;20765;-77
2024/01/13 06:10:04;;;;;;;733.75;679.10;;;3.00;99.90;;;;;;4998972;28;20088;-77
2024/01/13 06:12:30;;;;;;;794.92;735.38;;;2.70;99.90;;;;;;4983925;28;20057;-77
2024/01/13 06:14:56;;;;;;;758.08;701.90;;;2.90;99.90;;;;;;4984521;28;20046;-77
2024/01/13 06:17:22;;;;;;;729.47;675.20;;;3.30;99.90;;;;;;4983839;28;20046;-77
2024/01/13 06:19:48;;;;;;;798.42;736.92;;;2.70;99.90;;;;;;4988358;28;20078;-78
2024/01/13 06:22:13;;;;;;;732.47;678.95;;;2.80;99.90;;;;;;5004102;28;20093;-77
2024/01/13 06:24:39;;;;;;;771.95;714.22;;;2.70;99.90;;;;;;5000832;28;20061;-77
2024/01/13 06:27:05;;;;;;;721.22;667.35;;;2.80;99.90;;;;;;4996084;28;20062;-77
2024/01/13 06:29:31;;;;;;;795.17;733.40;;;3.40;99.90;;;;;;4965758;28;20476;-77
2024/01/13 06:31:56;;;;;;;792.40;733.15;;;2.70;99.90;;;;;;4983737;28;20047;-77
2024/01/13 06:34:22;;;;;;;748.35;692.38;;;2.80;99.90;;;;;;4983823;28;20054;-77
2024/01/13 06:36:48;;;;;;;737.78;683.78;;;3.00;99.90;;;;;;4983517;28;20095;-77
2024/01/13 06:39:13;;;;;;;871.45;800.17;;;2.90;99.90;;;;;;4981982;28;20101;-77
2024/01/13 06:41:39;;;;;;;767.53;710.72;;;2.90;99.90;;;;;;4990653;28;20077;-77
2024/01/13 06:44:05;;;;;;;740.97;686.55;;;3.00;99.90;;;;;;4970727;28;20058;-77
2024/01/13 06:46:31;;;;;;;786.03;726.30;;;2.80;99.90;;;;;;4985605;28;20121;-77
2024/01/13 06:48:57;;;;;;;816.40;752.78;;;3.00;99.90;;;;;;4986743;28;20061;-77
2024/01/13 06:51:23;;;;;;;791.72;730.47;;;2.80;99.90;;;;;;4983974;28;20255;-77
2024/01/13 06:53:48;;;;;;;791.58;731.30;;;2.90;99.90;;;;;;4981643;28;20520;-77
2024/01/13 06:56:14;;;;;;;762.80;706.28;;;3.00;99.90;;;;;;4994049;28;20046;-77
2024/01/13 06:58:40;;;;;;;744.05;688.38;;;2.80;99.90;;;;;;4987341;28;20046;-77
2024/01/13 07:01:07;;;;;;;763.45;706.20;;;2.90;99.90;;;;;;4974167;28;20449;-77
2024/01/13 07:03:33;;;;;;;761.47;702.33;;;2.80;99.90;;;;;;4985215;28;20514;-77
2024/01/13 07:05:59;;;;;;;805.65;742.90;;;2.90;99.90;;;;;;4974394;28;20082;-77
2024/01/13 07:08:24;;;;;;;747.50;692.22;;;2.90;99.90;;;;;;4999685;28;20042;-77
2024/01/13 07:10:53;;;;;;;748.72;692.88;;;2.90;99.90;;;;;;5001063;28;20136;-77
2024/01/13 07:13:19;;;;;;;822.13;759.38;;;3.00;99.90;;;;;;5003477;28;20114;-77
2024/01/13 07:15:45;;;;;;;751.55;695.85;;;3.00;99.90;;;;;;5004066;28;20053;-77
2024/01/13 07:18:10;;;;;;;793.85;732.65;;;3.00;99.90;;;;;;5002654;28;20152;-77
2024/01/13 07:20:36;;;;;;;786.45;726.67;;;2.90;99.90;;;;;;4978609;28;20041;-77
2024/01/13 07:23:02;;;;;;;737.25;682.55;;;2.90;99.90;;;;;;4988313;28;20046;-77
2024/01/13 07:25:30;;;;;;;779.53;720.63;;;2.90;99.90;;;;;;4990324;28;20395;-77
2024/01/13 07:27:56;;;;;;;750.85;694.92;;;3.30;99.90;;;;;;4986839;28;20049;-77
2024/01/13 07:30:22;;;;;;;727.08;673.10;;;3.00;99.90;;;;;;4978408;28;20619;-78
2024/01/13 07:32:48;;;;;;;752.10;695.92;;;3.00;99.90;;;;;;4998365;28;20054;-77
2024/01/13 07:35:13;;;;;;;830.40;764.88;;;3.10;99.90;;;;;;4996192;28;20042;-78
2024/01/13 07:37:39;;;;;;;828.38;764.15;;;3.00;99.90;;;;;;4996008;28;20103;-77
2024/01/13 07:40:06;;;;;;;777.42;718.20;;;2.90;99.90;;;;;;4995734;28;20481;-77
2024/01/13 07:42:32;;;;;;;786.03;724.55;;;3.10;99.90;;;;;;4997123;28;20046;-77
2024/01/13 07:44:59;;;;;;;776.05;715.92;;;3.10;99.90;;;;;;5034600;28;20059;-78
2024/01/13 07:47:24;;;;;;;855.97;788.22;;;3.00;99.90;;;;;;4997611;28;20137;-77
2024/01/13 07:49:50;;;;;;;837.33;768.97;;;3.50;99.90;;;;;;5003820;28;20538;-77
2024/01/13 07:52:16;;;;;;;769.40;710.72;;;3.10;99.90;;;;;;5005592;28;20073;-78
2024/01/13 07:54:41;;;;;;;796.25;734.33;;;3.30;99.90;;;;;;5003981;28;20500;-78
2024/01/13 07:57:07;;;;;;;747.75;690.90;;;3.10;99.90;;;;;;5005991;28;20045;-78
2024/01/13 07:59:33;;;;;;;765.30;706.88;;;3.10;99.90;;;;;;4983243;28;20065;-78
2024/01/13 08:01:59;;;;;;;772.78;713.67;;;3.10;99.90;;;;;;4999481;28;20106;-78
2024/01/13 08:04:24;;;;;;;759.92;701.13;;;3.70;99.90;;;;;;4984747;28;20050;-78
2024/01/13 08:06:50;;;;;;;780.30;719.65;;;3.10;99.90;;;;;;4989071;28;20046;-78
2024/01/13 08:09:17;;;;;;;763.95;705.30;;;3.00;99.90;;;;;;4981930;28;20487;-78
2024/01/13 08:11:43;;;;;;;794.10;732.47;;;3.10;99.90;;;;;;4989471;28;20058;-78
2024/01/13 08:14:08;;;;;;;726.78;671.10;;;3.20;99.90;;;;;;4991428;28;20102;-78
2024/01/13 08:16:34;;;;;;;779.35;718.38;;;3.10;99.90;;;;;;5001564;28;20085;-78
2024/01/13 08:19:01;;;;;;;726.83;671.10;;;3.20;99.90;;;;;;4995674;28;20060;-78
2024/01/13 08:21:27;;;;;;;754.72;696.45;;;3.80;99.90;;;;;;5006238;28;20058;-78
2024/01/13 08:23:52;;;;;;;805.25;741.42;;;3.60;99.90;;;;;;4994980;28;20047;-78
2024/01/13 08:26:18;;;;;;;719.08;664.50;;;3.70;99.90;;;;;;4980112;28;20485;-78
2024/01/13 08:28:44;;;;;;;783.08;722.08;;;3.10;99.90;;;;;;4991319;28;20391;-78
2024/01/13 08:31:10;;;;;;;847.08;775.92;;;2.70;99.90;;;;;;4989791;28;20384;-79
2024/01/13 08:33:35;;;;;;;743.95;685.65;;;3.10;99.90;;;;;;4985711;28;20049;-78
2024/01/13 08:36:01;;;;;;;903.47;823.28;;;3.10;99.90;;;;;;4986978;28;20159;-77
2024/01/13 08:38:27;;;;;;;794.40;730.10;;;3.20;99.90;;;;;;5003004;28;20198;-79
2024/01/13 08:40:53;;;;;;;867.00;791.28;;;3.10;99.90;;;;;;4972471;28;20051;-78
2024/01/13 08:43:18;;;;;;;756.20;696.10;;;3.50;99.90;;;;;;4986043;28;20115;-78
2024/01/13 08:45:44;;;;;;;761.50;700.63;;;3.10;99.90;;;;;;5004628;28;20050;-78
2024/01/13 08:48:10;;;;;;;764.22;703.63;;;3.10;99.90;;;;;;4994261;28;20479;-78
2024/01/13 08:50:35;;;;;;;856.08;780.55;;;3.20;99.90;;;;;;4994033;28;20046;-78
2024/01/13 08:53:01;;;;;;;743.75;684.00;;;3.10;99.90;;;;;;4998903;28;20642;-78
2024/01/13 08:55:27;;;;;;;779.47;716.10;;;3.20;99.90;;;;;;5003582;28;20122;-79
2024/01/13 08:57:53;;;;;;;787.63;717.58;;;3.20;99.90;;;;;;4990501;28;20055;-78
2024/01/13 09:00:19;;;;;;;702.65;647.20;;;3.20;99.90;;;;;;4984403;28;20042;-78
2024/01/13 09:02:45;;;;;;;708.70;653.33;;;3.30;99.90;;;;;;4969578;28;20086;-78
2024/01/13 09:05:11;;;;;;;809.30;741.78;;;3.20;99.90;;;;;;4986619;28;20045;-78
2024/01/13 09:07:38;;;;;;;732.03;673.17;;;3.80;99.90;;;;;;4984326;28;20053;-78
2024/01/13 09:10:04;;;;;;;779.83;714.88;;;3.40;99.90;;;;;;4987394;28;20405;-78
2024/01/13 09:12:30;;;;;;;700.58;645.17;;;3.30;99.90;;;;;;4984682;28;20502;-78
2024/01/13 09:14:56;;;;;;;731.13;672.80;;;3.30;99.90;;;;;;4992190;28;20049;-78
2024/01/13 09:17:22;;;;;;;778.72;715.03;;;3.50;99.90;;;;;;4995664;28;20050;-78
2024/01/13 09:19:48;;;;;;;667.33;615.17;;;3.20;99.90;;;;;;4985856;28;20076;-78
2024/01/13 09:22:14;;;;;;;757.53;693.10;;;3.60;99.90;;;;;;4983741;28;20371;-78
2024/01/13 09:24:42;;;;;;;685.80;631.47;;;3.20;99.90;;;;;;4985775;28;20409;-78
2024/01/13 09:27:07;;;;;;;836.35;764.00;;;3.20;99.90;;;;;;4985314;28;20054;-77
2024/01/13 09:29:33;;;;;;;703.45;647.55;;;3.20;99.90;;;;;;4986319;28;20046;-78
2024/01/13 09:32:00;;;;;;;709.75;654.08;;;3.30;99.90;;;;;;4985743;28;20485;-78
2024/01/13 09:34:26;;;;;;;746.78;688.22;;;3.30;99.90;;;;;;5006905;28;20161;-79
2024/01/13 09:36:51;;;;;;;701.10;645.13;;;3.30;99.90;;;;;;4984174;28;20597;-77
2024/01/13 09:39:18;;;;;;;748.55;687.58;;;3.20;99.90;;;;;;4992036;28;20072;-78
2024/01/13 09:41:45;;;;;;;741.80;681.72;;;3.20;99.90;;;;;;4999506;28;20412;-77
2024/01/13 09:44:15;;;;;;;752.55;691.47;;;3.20;99.90;;;;;;5003622;28;20061;-78
2024/01/13 09:46:41;;;;;;;751.60;690.17;;;3.30;99.90;;;;;;5033843;28;20050;-77
2024/01/13 09:49:12;;;;;;;777.17;712.30;;;3.70;99.90;;;;;;4990015;28;20111;-77
2024/01/13 09:51:39;;;;;;;780.00;714.75;;;3.20;99.90;;;;;;5002684;28;20060;-78
2024/01/13 09:54:11;;;;;;;741.03;679.85;;;3.60;99.90;;;;;;5006706;28;20081;-78
2024/01/13 09:56:44;;;;;;;733.95;675.08;;;3.40;99.90;;;;;;4995854;28;20628;-78
2024/01/13 09:59:11;;;;;;;761.35;699.67;;;3.30;99.90;;;;;;4982536;28;20171;-78
2024/01/13 10:01:37;;;;;;;738.95;678.70;;;3.30;99.90;;;;;;4975774;28;20121;-79
2024/01/13 10:04:03;;;;;;;632.58;582.92;;;3.40;99.90;;;;;;4976579;28;20122;-78
2024/01/13 10:06:32;;;;;;;700.55;644.42;;;3.30;99.90;;;;;;4974413;28;20130;-79
2024/01/13 10:08:58;;;;;;;684.28;629.88;;;3.40;99.90;;;;;;4979514;28;20119;-77
2024/01/13 10:11:23;;;;;;;737.42;679.30;;;3.40;99.90;;;;;;4985225;28;20055;-78
2024/01/13 10:14:01;;;;;;;674.35;620.92;;;3.40;99.90;;;;;;4977912;28;20100;-78
2024/01/13 10:16:29;;;;;;;706.60;650.72;;;3.40;99.90;;;;;;4974768;28;20043;-78
2024/01/13 10:18:55;;;;;;;756.38;694.33;;;3.50;99.90;;;;;;4972590;28;20436;-79
2024/01/13 10:21:23;;;;;;;740.45;680.45;;;3.70;99.90;;;;;;4978923;28;20039;-79
2024/01/13 10:23:49;;;;;;;801.80;733.55;;;3.50;99.90;;;;;;4971508;28;20059;-79
2024/01/13 10:26:16;;;;;;;765.97;704.47;;;3.50;99.90;;;;;;4972182;28;20118;-79
2024/01/13 10:28:43;;;;;;;750.17;689.97;;;3.50;99.90;;;;;;4979226;28;20042;-79
2024/01/13 10:31:09;;;;;;;773.60;707.45;;;3.50;99.90;;;;;;4972184;28;20060;-79
2024/01/13 10:33:35;;;;;;;764.00;699.97;;;3.70;99.90;;;;;;4982993;28;20126;-79
2024/01/13 10:36:01;;;;;;;710.95;655.53;;;3.70;99.90;;;;;;5029695;28;20050;-79
2024/01/13 10:38:26;;;;;;;829.78;754.55;;;3.70;99.90;;;;;;4981280;28;20050;-79
2024/01/13 10:40:53;;;;;;;762.47;701.63;;;4.00;99.90;;;;;;4987233;28;20053;-79
2024/01/13 10:43:22;;;;;;;783.03;718.33;;;3.70;99.90;;;;;;4987089;28;20046;-78
2024/01/13 10:45:52;;;;;;;750.35;690.17;;;3.80;99.90;;;;;;4987739;28;20044;-78
2024/01/13 10:48:34;;;;;;;762.50;700.55;;;3.80;99.90;;;;;;4990968;28;20064;-77
2024/01/13 10:51:01;;;;;;;744.10;684.75;;;3.90;99.90;;;;;;4996324;28;20045;-77
2024/01/13 10:53:29;;;;;;;759.22;698.95;;;3.90;99.90;;;;;;5003896;28;20046;-78
2024/01/13 10:55:56;;;;;;;754.05;693.38;;;3.90;99.90;;;;;;5008119;28;20072;-77
2024/01/13 10:58:23;;;;;;;726.83;669.30;;;3.80;99.90;;;;;;5004829;28;20046;-77
2024/01/13 11:00:50;;;;;;;865.80;787.70;;;3.90;99.90;;;;;;5005351;28;20065;-76
2024/01/13 11:03:18;;;;;;;773.67;712.22;;;3.80;99.90;;;;;;5004927;28;20046;-77
2024/01/13 11:05:44;;;;;;;754.97;696.42;;;3.90;99.90;;;;;;4986692;28;20058;-77
2024/01/13 11:08:10;;;;;;;796.15;730.22;;;4.00;99.90;;;;;;4986352;28;20049;-77
2024/01/13 11:10:41;;;;;;;810.33;742.05;;;4.10;99.90;;;;;;4986583;28;20438;-77
2024/01/13 11:13:19;;;;;;;870.40;789.65;;;4.10;99.90;;;;;;4986282;28;20121;-76
2024/01/13 11:15:59;;;;;;;835.22;764.60;;;4.10;99.90;;;;;;4987201;28;20090;-77
2024/01/13 11:18:26;;;;;;;764.88;701.45;;;4.10;99.90;;;;;;4987908;28;20050;-77
2024/01/13 11:21:01;;;;;;;719.95;663.13;;;4.10;99.90;;;;;;4986548;28;20073;-76
2024/01/13 11:23:27;;;;;;;759.00;698.28;;;4.10;99.90;;;;;;4980244;28;20104;-76
2024/01/13 11:25:53;;;;;;;789.20;724.22;;;4.30;99.90;;;;;;4995282;28;20041;-77
2024/01/13 11:28:21;;;;;;;715.47;659.00;;;4.20;99.90;;;;;;5036286;28;20395;-77
2024/01/13 11:30:47;;;;;;;727.53;671.75;;;4.20;99.90;;;;;;5004190;28;20046;-77
2024/01/13 11:33:15;;;;;;;810.58;743.33;;;4.20;99.90;;;;;;4989564;28;20505;-77
2024/01/13 11:35:46;;;;;;;782.72;719.33;;;4.20;99.90;;;;;;4995418;28;20058;-77
2024/01/13 11:38:14;;;;;;;822.65;755.10;;;4.20;99.90;;;;;;5003301;28;20530;-77
2024/01/13 11:40:46;;;;;;;763.50;704.13;;;4.20;99.90;;;;;;4995967;28;20053;-77
2024/01/13 11:43:22;;;;;;;854.67;782.20;;;4.30;99.90;;;;;;5002819;28;20540;-78
2024/01/13 11:45:50;;;;;;;692.70;640.83;;;4.30;99.90;;;;;;4989621;28;20070;-78
2024/01/13 11:48:39;;;;;;;705.15;651.97;;;4.30;99.90;;;;;;4986550;28;20046;-78
2024/01/13 11:51:11;;;;;;;772.30;710.58;;;4.40;99.90;;;;;;4975749;28;20133;-77
2024/01/13 11:53:40;;;;;;;765.15;704.85;;;4.40;99.90;;;;;;4985935;28;20054;-79
2024/01/13 11:56:07;;;;;;;740.33;682.53;;;4.30;99.90;;;;;;4980205;28;20513;-78
2024/01/13 11:58:36;;;;;;;701.33;648.70;;;4.30;99.90;;;;;;4981907;28;20055;-78
2024/01/13 12:01:04;;;;;;;733.10;676.05;;;4.40;99.90;;;;;;4985148;28;20150;-78
2024/01/13 12:03:30;;;;;;;803.42;736.75;;;4.40;99.90;;;;;;4996817;28;20602;-79
2024/01/13 12:05:57;;;;;;;750.55;690.10;;;4.40;99.90;;;;;;4994756;28;20385;-79
2024/01/13 12:08:25;;;;;;;729.35;673.30;;;4.40;99.90;;;;;;4994770;28;20049;-78
2024/01/13 12:10:53;;;;;;;800.25;735.60;;;4.30;99.90;;;;;;5000182;28;20046;-78
2024/01/13 12:13:21;;;;;;;746.88;688.15;;;4.30;99.90;;;;;;5003414;28;20117;-78